Time;durP1;ratioP1;P1;durP2;ratioP2;P2;SDS_P1;SDS_P2;PMS_P1;PMS_P2;Temp;Humidity;BMP_temperature;BMP_pressure;BME280_temperature;BME280_humidity;BME280_pressure;Samples;Min_cycle;Max_cycle;Signal;HPM_P1;HPM_P2
2022/10/03 00:01:26;;;;;;;3.08;1.70;;;22.00;58.90;;;;;;5069571;28;20086;-68
2022/10/03 00:04:32;;;;;;;2.17;1.10;;;22.10;60.30;;;;;;5048662;28;20033;-68
2022/10/03 00:07:09;;;;;;;3.95;0.90;;;22.30;58.40;;;;;;5049460;28;20044;-68
2022/10/03 00:09:57;;;;;;;0.60;0.50;;;22.50;57.50;;;;;;5049609;28;20049;-68
2022/10/03 00:12:48;;;;;;;1.38;0.68;;;22.50;54.10;;;;;;5048095;28;20386;-68
2022/10/03 00:15:27;;;;;;;2.33;0.80;;;22.40;54.80;;;;;;5049329;28;20082;-68
2022/10/03 00:18:19;;;;;;;2.38;0.85;;;22.40;55.90;;;;;;5049028;28;20534;-67
2022/10/03 00:21:02;;;;;;;2.28;0.70;;;22.40;58.30;;;;;;5044725;28;20401;-67
2022/10/03 00:23:38;;;;;;;2.78;0.75;;;23.00;52.10;;;;;;5047004;28;20029;-67
2022/10/03 00:26:26;;;;;;;3.55;0.70;;;22.30;52.90;;;;;;5048804;28;20025;-67
2022/10/03 00:28:56;;;;;;;2.20;0.82;;;21.80;54.90;;;;;;5048971;28;20494;-66
2022/10/03 00:31:47;;;;;;;2.22;0.50;;;21.50;51.50;;;;;;5047834;28;20410;-68
2022/10/03 00:34:39;;;;;;;1.98;0.70;;;21.00;54.60;;;;;;5047355;28;20501;-67
2022/10/03 00:37:14;;;;;;;3.13;0.85;;;20.80;57.00;;;;;;5036066;28;20052;-67
2022/10/03 00:40:02;;;;;;;2.17;0.88;;;20.80;58.00;;;;;;5042623;28;20090;-67
2022/10/03 00:42:41;;;;;;;3.63;0.80;;;20.50;57.50;;;;;;5044833;28;20088;-67
2022/10/03 00:45:47;;;;;;;2.25;0.73;;;20.70;59.20;;;;;;5045421;28;20021;-67
2022/10/03 00:48:29;;;;;;;3.67;0.75;;;21.00;61.00;;;;;;5037338;28;20063;-67
2022/10/03 00:51:22;;;;;;;1.77;0.80;;;21.40;56.50;;;;;;5045982;28;20108;-67
2022/10/03 00:53:55;;;;;;;3.40;0.80;;;21.70;60.70;;;;;;5039968;28;20047;-68
2022/10/03 00:56:28;;;;;;;1.80;0.75;;;21.90;57.20;;;;;;5044824;28;20021;-66
2022/10/03 00:59:04;;;;;;;2.42;0.73;;;22.00;54.90;;;;;;5049199;28;20059;-67
2022/10/03 01:01:53;;;;;;;2.50;0.73;;;22.00;54.80;;;;;;5048091;28;20029;-66
2022/10/03 01:04:23;;;;;;;1.77;0.70;;;21.90;52.80;;;;;;5048222;28;20036;-66
2022/10/03 01:07:18;;;;;;;1.30;0.60;;;21.30;54.50;;;;;;5051477;28;20029;-67
2022/10/03 01:10:08;;;;;;;1.20;0.70;;;20.90;53.70;;;;;;5069908;28;20035;-67
2022/10/03 01:12:46;;;;;;;1.27;0.50;;;20.20;54.40;;;;;;5066825;28;20056;-65
2022/10/03 01:15:38;;;;;;;2.72;0.85;;;20.00;53.90;;;;;;5050267;28;20421;-65
2022/10/03 01:18:20;;;;;;;1.65;0.60;;;19.90;56.30;;;;;;5049668;28;20044;-65
2022/10/03 01:21:13;;;;;;;3.67;0.80;;;19.70;56.40;;;;;;5051232;28;20037;-66
2022/10/03 01:23:57;;;;;;;2.03;0.60;;;19.70;56.30;;;;;;5041596;28;20045;-65
2022/10/03 01:26:55;;;;;;;3.08;0.80;;;19.60;55.00;;;;;;5048935;28;20478;-65
2022/10/03 01:32:59;;;;;;;3.13;0.95;;;20.20;57.90;;;;;;5061254;28;20043;-65
2022/10/03 01:35:39;;;;;;;1.13;0.50;;;21.10;53.90;;;;;;5044215;28;20079;-65
2022/10/03 01:38:50;;;;;;;2.08;0.80;;;21.30;52.00;;;;;;5047797;28;20472;-66
2022/10/03 01:41:47;;;;;;;1.00;0.50;;;21.50;51.90;;;;;;5047756;28;20079;-66
2022/10/03 01:44:24;;;;;;;1.95;0.77;;;21.50;53.60;;;;;;5049578;28;20454;-66
2022/10/03 01:47:01;;;;;;;1.90;0.60;;;21.50;49.50;;;;;;5051948;28;20016;-66
2022/10/03 01:49:37;;;;;;;1.10;0.60;;;21.60;51.50;;;;;;5066812;28;20524;-66
2022/10/03 01:52:22;;;;;;;0.70;0.50;;;21.80;50.20;;;;;;5049376;28;20028;-66
2022/10/03 01:55:05;;;;;;;1.65;1.00;;;21.60;49.10;;;;;;5047595;28;20036;-66
2022/10/03 01:57:42;;;;;;;2.25;0.52;;;21.50;48.80;;;;;;5068167;28;20029;-66
2022/10/03 02:00:19;;;;;;;0.75;0.50;;;21.80;52.50;;;;;;5069633;28;20038;-66
2022/10/03 02:02:50;;;;;;;0.98;0.55;;;22.00;51.70;;;;;;5053072;28;20028;-67
2022/10/03 02:05:35;;;;;;;2.28;0.80;;;21.80;50.40;;;;;;5049365;28;20108;-66
2022/10/03 02:08:44;;;;;;;1.67;0.70;;;22.10;54.60;;;;;;5057706;28;20079;-66
2022/10/03 02:11:21;;;;;;;0.77;0.50;;;22.50;55.60;;;;;;5057507;28;20127;-66
2022/10/03 02:13:57;;;;;;;0.65;0.40;;;23.10;53.00;;;;;;5060360;28;20029;-66
2022/10/03 02:16:34;;;;;;;1.48;0.63;;;23.50;48.40;;;;;;5048893;28;20029;-65
2022/10/03 02:19:25;;;;;;;1.77;0.73;;;23.70;48.50;;;;;;5048089;28;20104;-65
2022/10/03 02:21:59;;;;;;;2.17;0.85;;;24.00;49.70;;;;;;5037388;28;20033;-65
2022/10/03 02:24:53;;;;;;;1.48;0.60;;;24.00;46.80;;;;;;5048953;28;20022;-66
2022/10/03 02:27:40;;;;;;;1.43;0.60;;;23.90;48.20;;;;;;5047641;28;20068;-66
2022/10/03 02:30:28;;;;;;;3.13;0.98;;;23.60;47.50;;;;;;5048891;28;20021;-65
2022/10/03 02:33:13;;;;;;;5.90;1.35;;;23.20;47.60;;;;;;5054373;28;20033;-66
2022/10/03 02:36:04;;;;;;;2.45;1.00;;;22.30;49.50;;;;;;5048207;28;20037;-65
2022/10/03 02:38:43;;;;;;;3.50;1.15;;;22.00;50.30;;;;;;5048665;28;20401;-65
2022/10/03 02:41:31;;;;;;;3.08;0.95;;;21.70;49.20;;;;;;5053173;28;20378;-66
2022/10/03 02:44:35;;;;;;;2.65;0.93;;;21.50;52.80;;;;;;5046600;28;20029;-65
2022/10/03 02:47:31;;;;;;;4.55;1.30;;;21.70;51.10;;;;;;5047787;28;20017;-65
2022/10/03 02:50:07;;;;;;;4.07;1.10;;;21.80;56.50;;;;;;5036998;28;20155;-65
2022/10/03 02:52:46;;;;;;;3.75;1.20;;;21.80;52.50;;;;;;5047516;28;20115;-65
2022/10/03 02:55:38;;;;;;;3.30;1.77;;;22.10;52.70;;;;;;5047917;28;20033;-65
2022/10/03 02:58:14;;;;;;;4.78;1.33;;;22.20;54.10;;;;;;5048169;28;20084;-64
2022/10/03 03:00:56;;;;;;;2.97;1.20;;;22.60;54.80;;;;;;5054768;28;20052;-65
2022/10/03 03:03:38;;;;;;;3.15;1.10;;;22.60;50.50;;;;;;5072095;28;20024;-66
2022/10/03 03:06:33;;;;;;;2.78;1.10;;;22.90;55.40;;;;;;5056482;28;20032;-66
2022/10/03 03:09:46;;;;;;;2.15;1.20;;;23.20;52.00;;;;;;5031061;28;20037;-65
2022/10/03 03:12:37;;;;;;;1.95;0.90;;;23.00;47.40;;;;;;5047191;28;20020;-66
2022/10/03 03:15:31;;;;;;;3.88;0.95;;;23.20;52.50;;;;;;5058098;28;20037;-66
2022/10/03 03:18:14;;;;;;;5.05;1.38;;;23.50;48.00;;;;;;5051811;28;20025;-66
2022/10/03 03:20:56;;;;;;;2.75;0.85;;;23.90;52.60;;;;;;5052283;28;20096;-66
2022/10/03 03:23:37;;;;;;;4.05;0.85;;;24.30;50.60;;;;;;5050715;28;20020;-66
2022/10/03 03:26:34;;;;;;;2.92;1.10;;;24.20;48.10;;;;;;5050386;28;20033;-65
2022/10/03 03:29:08;;;;;;;2.53;1.00;;;24.50;48.70;;;;;;5050140;28;20029;-66
2022/10/03 03:32:02;;;;;;;1.17;0.80;;;24.70;45.10;;;;;;5046570;28;20128;-66
2022/10/03 03:34:44;;;;;;;1.83;1.13;;;24.60;46.90;;;;;;5053368;28;20040;-66
2022/10/03 03:37:44;;;;;;;2.38;0.93;;;24.50;48.80;;;;;;5058402;28;20052;-66
2022/10/03 03:40:45;;;;;;;3.55;1.20;;;24.20;44.40;;;;;;5051424;28;20071;-67
2022/10/03 03:43:24;;;;;;;2.63;1.10;;;24.00;44.60;;;;;;5047119;28;20655;-67
2022/10/03 03:46:19;;;;;;;3.22;0.90;;;23.60;47.10;;;;;;5067799;28;20028;-67
2022/10/03 03:49:30;;;;;;;3.42;1.73;;;23.20;46.00;;;;;;5068808;28;21346;-67
2022/10/03 03:52:34;;;;;;;3.05;1.05;;;22.90;46.70;;;;;;5071475;28;20500;-67
2022/10/03 03:55:33;;;;;;;2.40;1.15;;;22.90;49.30;;;;;;5067186;28;20565;-67
2022/10/03 03:58:34;;;;;;;3.83;1.23;;;23.00;48.00;;;;;;5058992;28;20030;-67
2022/10/03 04:01:20;;;;;;;4.05;1.38;;;22.90;48.60;;;;;;5036879;28;20029;-68
2022/10/03 04:04:14;;;;;;;2.63;1.00;;;23.10;50.80;;;;;;5052178;28;20071;-67
2022/10/03 04:06:52;;;;;;;1.90;0.85;;;23.20;48.30;;;;;;5057576;28;20394;-67
2022/10/03 04:09:25;;;;;;;4.85;1.20;;;23.30;46.80;;;;;;5051085;28;20112;-67
2022/10/03 04:12:28;;;;;;;5.17;1.57;;;23.40;45.60;;;;;;5050978;28;20025;-67
2022/10/03 04:15:15;;;;;;;3.38;0.68;;;23.40;49.90;;;;;;5050642;28;20363;-67
2022/10/03 04:21:03;;;;;;;3.08;1.15;;;23.20;47.50;;;;;;5069461;28;20085;-67
2022/10/03 04:24:03;;;;;;;2.08;1.13;;;23.30;48.50;;;;;;5069360;28;20066;-67
2022/10/03 04:27:03;;;;;;;2.75;0.90;;;23.20;46.90;;;;;;5063868;28;21516;-67
2022/10/03 04:30:00;;;;;;;3.00;0.90;;;23.30;47.20;;;;;;5049238;28;20029;-66
2022/10/03 04:32:46;;;;;;;3.33;0.90;;;23.10;46.40;;;;;;5070501;28;20036;-66
2022/10/03 04:35:19;;;;;;;2.92;0.98;;;23.20;48.00;;;;;;5039146;28;20040;-66
2022/10/03 04:38:06;;;;;;;2.63;1.25;;;23.50;48.30;;;;;;5044500;28;20021;-69
2022/10/03 04:40:48;;;;;;;2.50;1.02;;;23.70;47.20;;;;;;5029995;28;20033;-69
2022/10/03 04:43:51;;;;;;;2.88;1.20;;;23.90;48.60;;;;;;5049128;28;20117;-68
2022/10/03 04:46:38;;;;;;;3.70;1.40;;;23.90;48.30;;;;;;5043876;28;20531;-69
2022/10/03 04:49:29;;;;;;;6.15;1.55;;;23.90;47.80;;;;;;5050210;28;20040;-69
2022/10/03 04:52:24;;;;;;;3.63;1.15;;;23.40;47.80;;;;;;5050166;28;20430;-68
2022/10/03 04:55:27;;;;;;;4.65;1.23;;;23.00;46.30;;;;;;5049380;28;20483;-68
2022/10/03 04:58:19;;;;;;;2.78;1.30;;;22.80;49.00;;;;;;5038086;28;20116;-69
2022/10/03 05:00:50;;;;;;;2.92;1.23;;;22.70;49.00;;;;;;5050279;28;20028;-69
2022/10/03 05:03:42;;;;;;;1.88;1.00;;;22.60;46.30;;;;;;5048676;28;20043;-69
2022/10/03 05:06:35;;;;;;;1.95;0.90;;;22.50;48.90;;;;;;5050024;28;20116;-69
2022/10/03 05:09:14;;;;;;;3.30;1.38;;;22.30;49.50;;;;;;5049681;28;20071;-69
2022/10/03 05:12:05;;;;;;;3.08;1.25;;;22.00;48.40;;;;;;5049921;28;20095;-69
2022/10/03 05:14:48;;;;;;;3.25;1.33;;;22.00;51.00;;;;;;5049786;28;20821;-68
2022/10/03 05:17:58;;;;;;;1.70;0.75;;;22.20;51.50;;;;;;5048188;28;20040;-68
2022/10/03 05:20:48;;;;;;;1.63;0.70;;;22.20;51.10;;;;;;5049817;28;20035;-68
2022/10/03 05:23:33;;;;;;;1.90;0.75;;;22.10;50.30;;;;;;5046865;28;20075;-68
2022/10/03 05:26:16;;;;;;;1.92;0.80;;;21.90;50.70;;;;;;5046219;28;20020;-69
2022/10/03 05:28:49;;;;;;;2.53;1.08;;;21.80;49.60;;;;;;5056985;28;20123;-69
2022/10/03 05:31:33;;;;;;;1.40;0.50;;;21.50;50.60;;;;;;5076206;28;20072;-68
2022/10/03 05:34:11;;;;;;;1.48;0.80;;;21.20;51.10;;;;;;5037888;28;21425;-69
2022/10/03 05:37:06;;;;;;;2.08;0.68;;;21.00;50.80;;;;;;5042952;28;20063;-69
2022/10/03 05:39:53;;;;;;;1.67;0.77;;;20.80;52.10;;;;;;5042558;28;20502;-68
2022/10/03 05:42:54;;;;;;;1.85;0.70;;;20.60;52.40;;;;;;5045656;28;20054;-68
2022/10/03 05:45:42;;;;;;;1.25;0.63;;;20.30;53.00;;;;;;5045105;28;20017;-68
2022/10/03 05:48:27;;;;;;;2.65;0.80;;;20.20;53.70;;;;;;5047761;28;20013;-68
2022/10/03 05:51:12;;;;;;;3.50;0.98;;;20.20;54.40;;;;;;5047588;28;20522;-68
2022/10/03 05:54:03;;;;;;;5.93;1.15;;;20.20;54.00;;;;;;5046552;28;20385;-69
2022/10/03 05:56:47;;;;;;;2.00;0.90;;;20.30;54.00;;;;;;5046434;28;20486;-68
2022/10/03 05:59:36;;;;;;;4.57;1.55;;;20.50;53.90;;;;;;5038144;28;20033;-67
2022/10/03 06:02:21;;;;;;;2.92;1.20;;;20.80;54.00;;;;;;5042642;28;20044;-67
2022/10/03 06:05:12;;;;;;;2.60;1.50;;;20.90;51.40;;;;;;5043278;28;20036;-67
2022/10/03 06:08:00;;;;;;;2.72;1.05;;;20.90;52.50;;;;;;5036605;28;20029;-67
2022/10/03 06:10:36;;;;;;;1.73;1.00;;;21.00;52.30;;;;;;5039351;28;20029;-68
2022/10/03 06:13:22;;;;;;;1.90;1.00;;;21.20;53.30;;;;;;5041762;28;20075;-68
2022/10/03 06:15:58;;;;;;;1.42;0.60;;;21.40;52.10;;;;;;5039268;28;20045;-68
2022/10/03 06:18:57;;;;;;;5.43;1.00;;;21.50;52.60;;;;;;5040819;28;20021;-67
2022/10/03 06:21:47;;;;;;;2.40;0.80;;;21.60;51.30;;;;;;5055602;28;20837;-68
2022/10/03 06:24:41;;;;;;;2.30;0.73;;;21.50;49.60;;;;;;5043862;28;20036;-68
2022/10/03 06:27:50;;;;;;;3.75;0.80;;;21.10;50.40;;;;;;5044271;28;20108;-68
2022/10/03 06:30:25;;;;;;;2.33;0.93;;;20.90;50.90;;;;;;5042741;28;20036;-69
2022/10/03 06:33:14;;;;;;;2.22;0.90;;;20.60;51.20;;;;;;5046712;28;20036;-67
2022/10/03 06:35:44;;;;;;;3.25;1.40;;;20.40;52.70;;;;;;5045381;28;20135;-67
2022/10/03 06:38:29;;;;;;;2.00;0.90;;;20.20;53.70;;;;;;5048335;28;20107;-67
2022/10/03 06:41:20;;;;;;;3.08;0.63;;;20.00;54.70;;;;;;5048754;28;20100;-67
2022/10/03 06:43:58;;;;;;;2.47;1.20;;;19.70;56.00;;;;;;5048057;28;20057;-67
2022/10/03 06:47:06;;;;;;;3.85;1.00;;;19.50;54.80;;;;;;5048490;28;20110;-68
2022/10/03 06:49:45;;;;;;;2.85;0.75;;;19.30;56.30;;;;;;5047855;28;20095;-68
2022/10/03 06:52:39;;;;;;;1.85;1.10;;;19.00;56.70;;;;;;5044293;28;20035;-68
2022/10/03 06:55:34;;;;;;;1.67;0.70;;;18.90;58.00;;;;;;5049417;28;20450;-68
2022/10/03 06:58:19;;;;;;;2.55;1.08;;;18.90;58.40;;;;;;5047313;28;20025;-67
2022/10/03 07:01:10;;;;;;;2.53;1.38;;;18.90;58.30;;;;;;5043667;28;20580;-67
2022/10/03 07:03:58;;;;;;;3.05;0.80;;;19.00;58.10;;;;;;5049709;28;20513;-68
2022/10/03 07:06:37;;;;;;;4.18;1.20;;;19.00;58.20;;;;;;5068802;28;20028;-68
2022/10/03 07:09:34;;;;;;;1.75;0.82;;;19.00;59.00;;;;;;5058699;28;20020;-67
2022/10/03 07:12:12;;;;;;;3.88;0.98;;;19.10;60.70;;;;;;5061349;28;20557;-67
2022/10/03 07:15:00;;;;;;;1.15;0.77;;;19.20;60.90;;;;;;5029599;28;20033;-66
2022/10/03 07:18:06;;;;;;;2.13;0.70;;;19.20;61.50;;;;;;5046482;28;20358;-67
2022/10/03 07:20:54;;;;;;;2.25;0.60;;;19.20;62.40;;;;;;5044613;28;20036;-67
2022/10/03 07:23:46;;;;;;;2.33;0.60;;;19.10;63.00;;;;;;5033992;28;20355;-67
2022/10/03 07:26:36;;;;;;;1.17;0.65;;;19.00;62.70;;;;;;5044768;28;20106;-66
2022/10/03 07:29:10;;;;;;;2.45;0.80;;;18.70;63.90;;;;;;5039029;28;20029;-68
2022/10/03 07:31:58;;;;;;;2.90;0.70;;;18.60;64.80;;;;;;5047555;28;20037;-67
2022/10/03 07:35:04;;;;;;;4.78;0.80;;;18.40;65.30;;;;;;5047236;28;20044;-67
2022/10/03 07:40:50;;;;;;;2.40;0.70;;;17.90;66.70;;;;;;5041141;28;20048;-68
2022/10/03 07:43:41;;;;;;;2.50;0.60;;;17.70;67.90;;;;;;5046621;28;20040;-67
2022/10/03 07:46:42;;;;;;;1.98;0.60;;;17.50;69.10;;;;;;5041674;28;20021;-68
2022/10/03 07:49:37;;;;;;;2.38;0.50;;;17.30;69.90;;;;;;5054256;28;20390;-67
2022/10/03 07:52:41;;;;;;;2.97;1.15;;;17.00;71.10;;;;;;5048857;28;20359;-67
2022/10/03 07:55:25;;;;;;;2.60;0.60;;;16.80;72.40;;;;;;5047049;28;20036;-67
2022/10/03 07:57:59;;;;;;;2.38;1.00;;;16.70;73.30;;;;;;5034640;28;20080;-65
2022/10/03 08:00:46;;;;;;;2.08;0.73;;;16.50;74.10;;;;;;5048220;28;20017;-67
2022/10/03 08:04:10;;;;;;;2.15;0.98;;;16.30;75.00;;;;;;5047634;28;20490;-68
2022/10/03 08:06:44;;;;;;;5.18;0.90;;;16.20;76.30;;;;;;5004730;28;20557;-68
2022/10/03 08:09:33;;;;;;;2.70;0.73;;;16.00;76.60;;;;;;5004941;28;20026;-67
2022/10/03 08:12:20;;;;;;;7.03;1.83;;;15.90;77.20;;;;;;5065987;28;20041;-67
2022/10/03 08:15:08;;;;;;;7.93;1.38;;;15.80;78.30;;;;;;5048271;28;20040;-70
2022/10/03 08:18:11;;;;;;;4.55;1.20;;;15.60;78.70;;;;;;5045430;28;20115;-64
2022/10/03 08:20:56;;;;;;;7.20;1.70;;;15.50;79.30;;;;;;5039568;28;20757;-63
2022/10/03 08:23:35;;;;;;;3.05;1.30;;;15.40;79.30;;;;;;5045882;28;20498;-65
2022/10/03 08:26:29;;;;;;;7.45;1.90;;;15.40;79.80;;;;;;5037819;28;20025;-65
2022/10/03 08:29:15;;;;;;;8.68;2.47;;;15.30;79.80;;;;;;5041663;28;20060;-64
2022/10/03 08:31:54;;;;;;;11.00;2.35;;;15.20;80.30;;;;;;5043473;28;20032;-63
2022/10/03 08:34:48;;;;;;;8.38;2.58;;;15.20;80.00;;;;;;5045074;28;20078;-64
2022/10/03 08:37:40;;;;;;;13.45;3.97;;;15.00;80.80;;;;;;5041255;28;20112;-64
2022/10/03 08:40:40;;;;;;;11.95;3.72;;;15.00;81.00;;;;;;5041337;28;20021;-63
2022/10/03 08:43:28;;;;;;;7.22;4.00;;;14.90;81.50;;;;;;5038957;28;20691;-63
2022/10/03 08:46:27;;;;;;;5.72;1.70;;;14.90;81.30;;;;;;5042625;28;20397;-63
2022/10/03 08:49:32;;;;;;;4.97;1.88;;;14.90;81.00;;;;;;5037919;28;20037;-63
2022/10/03 08:52:28;;;;;;;3.13;1.92;;;14.90;80.80;;;;;;5057812;28;20559;-63
2022/10/03 08:55:08;;;;;;;3.53;0.82;;;14.80;81.60;;;;;;5043867;28;20041;-63
2022/10/03 08:57:55;;;;;;;6.10;1.30;;;14.80;81.40;;;;;;5042633;28;20040;-63
2022/10/03 09:00:51;;;;;;;3.00;1.10;;;14.80;81.40;;;;;;5042237;28;20048;-63
2022/10/03 09:04:08;;;;;;;4.38;1.58;;;14.80;81.80;;;;;;5040897;28;20437;-64
2022/10/03 09:06:58;;;;;;;8.13;2.92;;;14.60;82.40;;;;;;5044568;28;20032;-63
2022/10/03 09:09:55;;;;;;;11.50;3.90;;;14.50;82.60;;;;;;5040519;28;20021;-63
2022/10/03 09:13:06;;;;;;;14.82;2.38;;;14.50;82.80;;;;;;5038935;28;20028;-64
2022/10/03 09:15:45;;;;;;;5.18;2.20;;;14.50;83.00;;;;;;5040669;28;20032;-64
2022/10/03 09:18:42;;;;;;;13.32;4.88;;;14.50;83.60;;;;;;5038632;28;20040;-62
2022/10/03 09:21:23;;;;;;;10.32;3.53;;;14.40;84.10;;;;;;5033274;28;20041;-64
2022/10/03 09:24:09;;;;;;;6.28;2.60;;;14.30;84.20;;;;;;5064602;28;20033;-64
2022/10/03 09:27:00;;;;;;;7.50;3.22;;;14.10;84.10;;;;;;5025141;28;20029;-65
2022/10/03 09:30:09;;;;;;;9.40;2.95;;;14.00;85.00;;;;;;5039287;28;20040;-62
2022/10/03 09:32:58;;;;;;;7.32;2.55;;;13.90;85.40;;;;;;5043084;28;20033;-61
2022/10/03 09:35:43;;;;;;;5.10;1.73;;;13.80;86.10;;;;;;5024544;28;20403;-63
2022/10/03 09:38:10;;;;;;;6.20;2.33;;;13.70;86.50;;;;;;5035704;28;20025;-62
2022/10/03 09:41:14;;;;;;;5.75;1.20;;;13.70;85.90;;;;;;5043881;28;20094;-62
2022/10/03 09:44:09;;;;;;;7.80;2.20;;;13.70;86.30;;;;;;5040630;28;20082;-61
2022/10/03 09:50:20;;;;;;;7.65;2.45;;;13.60;87.40;;;;;;5044151;28;20075;-63
2022/10/03 09:53:24;;;;;;;4.85;1.38;;;13.50;87.20;;;;;;5041057;28;20148;-63
2022/10/03 09:56:27;;;;;;;1.40;0.77;;;13.30;88.10;;;;;;5037573;28;20041;-64
2022/10/03 09:59:14;;;;;;;2.83;1.00;;;13.30;88.70;;;;;;5041763;28;20036;-63
2022/10/03 10:01:56;;;;;;;4.45;1.15;;;13.10;90.00;;;;;;5042681;28;20075;-63
2022/10/03 10:04:44;;;;;;;3.92;0.88;;;13.10;90.00;;;;;;5048287;28;20090;-64
2022/10/03 10:07:45;;;;;;;1.60;0.57;;;13.10;90.00;;;;;;5043886;28;20076;-64
2022/10/03 10:10:30;;;;;;;2.03;0.73;;;13.10;90.30;;;;;;5048724;28;20035;-64
2022/10/03 10:13:21;;;;;;;2.67;0.80;;;13.10;90.40;;;;;;5047325;28;20075;-64
2022/10/03 10:16:23;;;;;;;5.38;0.80;;;13.00;90.50;;;;;;5048192;28;20036;-63
2022/10/03 10:18:56;;;;;;;1.63;0.70;;;13.00;90.70;;;;;;5052762;28;20820;-64
2022/10/03 10:21:48;;;;;;;2.33;0.60;;;12.90;90.80;;;;;;5046972;28;20037;-64
2022/10/03 10:24:45;;;;;;;2.38;0.70;;;12.80;91.20;;;;;;5042063;28;20222;-63
2022/10/03 10:27:43;;;;;;;1.13;0.60;;;12.80;91.20;;;;;;5046143;28;20086;-64
2022/10/03 10:30:20;;;;;;;2.05;0.70;;;12.80;91.30;;;;;;5046118;28;20021;-64
2022/10/03 10:33:06;;;;;;;1.67;0.80;;;12.60;91.60;;;;;;5047663;28;20432;-64
2022/10/03 10:36:05;;;;;;;1.88;0.70;;;12.50;91.70;;;;;;5050698;28;20130;-64
2022/10/03 10:38:59;;;;;;;3.08;0.60;;;12.30;92.10;;;;;;5047038;28;20114;-64
2022/10/03 10:41:40;;;;;;;3.63;0.75;;;12.20;92.90;;;;;;5048006;28;20033;-64
2022/10/03 10:44:38;;;;;;;2.50;0.80;;;12.10;93.30;;;;;;5050034;28;20499;-64
2022/10/03 10:47:17;;;;;;;7.97;1.67;;;12.00;93.30;;;;;;5047459;28;20032;-64
2022/10/03 10:49:44;;;;;;;9.85;2.97;;;11.90;93.60;;;;;;5044706;28;20037;-64
2022/10/03 10:52:56;;;;;;;4.05;2.05;;;12.00;93.90;;;;;;5047541;28;20044;-64
2022/10/03 10:55:45;;;;;;;4.00;1.90;;;11.90;93.80;;;;;;5042579;28;20052;-64
2022/10/03 10:58:36;;;;;;;3.45;1.20;;;11.80;93.80;;;;;;5048229;28;20017;-64
2022/10/03 11:01:27;;;;;;;1.80;1.13;;;11.70;94.00;;;;;;5045154;28;20032;-67
2022/10/03 11:04:32;;;;;;;4.22;1.13;;;11.60;94.00;;;;;;5047287;28;20025;-65
2022/10/03 11:07:10;;;;;;;5.60;0.70;;;11.50;94.20;;;;;;5053131;28;20033;-63
2022/10/03 11:10:15;;;;;;;2.85;0.90;;;11.40;94.30;;;;;;5042534;28;20029;-64
2022/10/03 11:12:57;;;;;;;3.42;1.27;;;11.30;94.60;;;;;;5047774;28;20040;-63
2022/10/03 11:15:58;;;;;;;1.90;0.85;;;11.20;94.80;;;;;;5044903;28;20505;-64
2022/10/03 11:18:54;;;;;;;3.10;0.75;;;11.10;95.10;;;;;;5049786;28;20439;-64
2022/10/03 11:21:49;;;;;;;1.95;1.00;;;11.00;95.20;;;;;;5046374;28;20413;-66
2022/10/03 11:24:22;;;;;;;2.60;0.90;;;10.90;95.50;;;;;;5047281;28;20025;-65
2022/10/03 11:27:05;;;;;;;3.10;1.00;;;10.80;95.80;;;;;;5047286;28;20642;-65
2022/10/03 11:30:08;;;;;;;2.15;1.00;;;10.80;96.40;;;;;;5044619;28;20120;-65
2022/10/03 11:33:07;;;;;;;3.28;0.85;;;10.70;96.50;;;;;;5061067;28;20036;-65
2022/10/03 11:36:06;;;;;;;3.92;0.93;;;10.70;96.70;;;;;;5043424;28;20445;-64
2022/10/03 11:38:54;;;;;;;2.05;1.00;;;10.70;96.80;;;;;;5037602;28;20143;-64
2022/10/03 11:41:29;;;;;;;1.60;0.95;;;10.70;97.00;;;;;;5047245;28;20033;-64
2022/10/03 11:44:14;;;;;;;2.60;0.98;;;10.70;97.30;;;;;;5056191;28;20081;-64
2022/10/03 11:46:58;;;;;;;4.95;1.38;;;10.60;97.10;;;;;;5052125;28;20043;-64
2022/10/03 11:49:44;;;;;;;3.57;1.30;;;10.60;97.30;;;;;;5045570;28;20060;-63
2022/10/03 11:52:38;;;;;;;3.75;1.05;;;10.60;97.30;;;;;;5035983;28;20128;-64
2022/10/03 11:55:30;;;;;;;5.83;1.50;;;10.70;97.50;;;;;;5034162;28;20032;-64
2022/10/03 11:58:33;;;;;;;3.20;1.10;;;10.70;97.60;;;;;;5051983;28;20062;-62
2022/10/03 12:01:11;;;;;;;3.70;1.30;;;10.70;97.70;;;;;;5057154;28;20110;-63
2022/10/03 12:03:54;;;;;;;2.63;0.90;;;10.80;97.70;;;;;;5028237;28;20060;-65
2022/10/03 12:09:37;;;;;;;3.10;1.23;;;10.90;97.70;;;;;;5040846;28;20631;-63
2022/10/03 12:12:10;;;;;;;5.83;1.80;;;10.90;97.60;;;;;;5047855;28;20028;-63
2022/10/03 12:14:45;;;;;;;3.72;2.40;;;10.90;97.50;;;;;;5035892;28;20090;-63
2022/10/03 12:17:35;;;;;;;8.60;1.55;;;10.90;97.40;;;;;;5048242;28;20090;-63
2022/10/03 12:20:22;;;;;;;4.15;1.40;;;10.80;97.40;;;;;;5050086;28;20033;-63
2022/10/03 12:22:58;;;;;;;2.97;1.30;;;10.80;97.50;;;;;;5038878;28;20567;-64
2022/10/03 12:25:39;;;;;;;4.55;2.10;;;10.80;97.50;;;;;;5048326;28;20028;-64
2022/10/03 12:28:14;;;;;;;5.43;1.50;;;10.70;97.50;;;;;;5045666;28;20056;-64
2022/10/03 12:30:44;;;;;;;2.70;1.48;;;10.60;97.90;;;;;;5045204;28;20642;-64
2022/10/03 12:33:27;;;;;;;2.40;1.20;;;10.60;98.20;;;;;;5043930;28;20040;-64
2022/10/03 12:36:14;;;;;;;3.55;1.30;;;10.60;98.00;;;;;;5049857;28;20036;-64
2022/10/03 12:39:00;;;;;;;4.93;1.40;;;10.60;98.50;;;;;;5046387;28;20028;-64
2022/10/03 12:41:44;;;;;;;3.53;1.30;;;10.60;98.60;;;;;;5046859;28;20060;-64
2022/10/03 12:44:28;;;;;;;1.73;1.15;;;10.60;98.40;;;;;;5050248;28;20020;-64
2022/10/03 12:47:13;;;;;;;3.25;1.05;;;10.60;98.30;;;;;;5047454;28;20025;-64
2022/10/03 12:49:46;;;;;;;1.13;0.63;;;10.50;98.30;;;;;;5047282;28;20721;-64
2022/10/03 12:52:46;;;;;;;4.07;1.05;;;10.50;98.50;;;;;;5048988;28;20389;-64
2022/10/03 12:55:34;;;;;;;3.75;1.13;;;10.50;98.50;;;;;;5043681;28;20067;-64
2022/10/03 12:58:16;;;;;;;2.67;1.13;;;10.50;98.50;;;;;;5051544;28;20025;-64
2022/10/03 13:01:01;;;;;;;1.70;0.85;;;10.40;98.40;;;;;;5048764;28;20025;-63
2022/10/03 13:03:52;;;;;;;2.90;1.27;;;10.40;98.60;;;;;;5048415;28;20367;-64
2022/10/03 13:06:28;;;;;;;3.05;1.10;;;10.30;98.70;;;;;;5048233;28;20021;-64
2022/10/03 13:09:29;;;;;;;1.77;0.90;;;10.30;99.00;;;;;;5048238;28;20176;-64
2022/10/03 13:12:39;;;;;;;2.08;0.77;;;10.20;99.20;;;;;;5048511;28;20027;-63
2022/10/03 13:15:33;;;;;;;4.95;1.60;;;10.20;99.20;;;;;;5022414;28;20131;-63
2022/10/03 13:18:03;;;;;;;2.70;1.13;;;10.10;99.30;;;;;;5048670;28;20036;-64
2022/10/03 13:20:35;;;;;;;3.38;1.00;;;10.10;99.90;;;;;;5048687;28;20254;-63
2022/10/03 13:23:06;;;;;;;2.45;1.25;;;10.00;99.80;;;;;;5046742;28;20085;-64
2022/10/03 13:25:56;;;;;;;2.92;1.10;;;10.00;99.70;;;;;;5054566;28;20111;-64
2022/10/03 13:28:44;;;;;;;5.47;1.23;;;9.90;99.80;;;;;;5047989;28;20060;-64
2022/10/03 13:31:18;;;;;;;4.28;1.33;;;9.80;99.90;;;;;;5046782;28;20685;-63
2022/10/03 13:33:52;;;;;;;3.97;1.70;;;9.90;99.90;;;;;;5047757;28;20390;-64
2022/10/03 13:36:34;;;;;;;3.13;1.40;;;9.90;99.90;;;;;;5046208;28;20313;-63
2022/10/03 13:39:25;;;;;;;4.78;1.35;;;9.90;99.90;;;;;;5047097;28;20017;-63
2022/10/03 13:42:22;;;;;;;4.70;1.40;;;9.80;99.90;;;;;;5043856;28;20040;-64
2022/10/03 13:44:54;;;;;;;3.38;1.33;;;9.70;99.90;;;;;;5039366;28;20525;-63
2022/10/03 13:47:39;;;;;;;9.77;2.75;;;9.70;99.90;;;;;;5047306;28;20017;-63
2022/10/03 13:50:14;;;;;;;8.77;3.05;;;9.70;99.90;;;;;;5044471;28;20045;-63
2022/10/03 13:53:15;;;;;;;9.07;2.60;;;9.60;99.90;;;;;;5046803;28;20048;-63
2022/10/03 13:55:51;;;;;;;8.82;3.67;;;9.70;99.90;;;;;;5043814;28;20490;-63
2022/10/03 13:58:39;;;;;;;7.80;2.20;;;9.70;99.90;;;;;;5043046;28;20029;-63
2022/10/03 14:01:33;;;;;;;7.20;1.92;;;9.70;99.90;;;;;;5036882;28;20057;-63
2022/10/03 14:04:22;;;;;;;5.38;1.50;;;10.10;99.90;;;;;;5049463;28;20029;-64
2022/10/03 14:07:00;;;;;;;4.53;1.63;;;10.20;99.90;;;;;;5053459;28;20040;-63
2022/10/03 14:09:42;;;;;;;4.95;1.83;;;10.20;99.90;;;;;;5051452;28;20017;-63
2022/10/03 14:12:45;;;;;;;4.32;1.73;;;10.20;99.90;;;;;;5044394;28;20021;-63
2022/10/03 14:15:36;;;;;;;3.55;1.30;;;10.00;99.90;;;;;;5030964;28;20521;-63
2022/10/03 14:18:40;;;;;;;4.18;1.40;;;9.80;99.90;;;;;;5043190;28;20082;-63
2022/10/03 14:21:35;;;;;;;6.00;1.52;;;9.70;99.90;;;;;;5045845;28;20087;-63
2022/10/03 14:24:32;;;;;;;4.10;1.53;;;9.60;99.90;;;;;;5039091;28;20519;-63
2022/10/03 14:27:40;;;;;;;5.30;1.42;;;9.50;99.90;;;;;;5045725;28;20360;-62
2022/10/03 14:30:14;;;;;;;3.55;1.80;;;9.30;99.90;;;;;;5033438;28;20037;-63
2022/10/03 14:32:58;;;;;;;6.60;2.72;;;9.20;99.90;;;;;;5046769;28;20033;-63
2022/10/03 14:35:50;;;;;;;5.43;2.75;;;9.20;99.90;;;;;;5046246;28;20040;-63
2022/10/03 14:41:25;;;;;;;6.75;2.22;;;9.00;99.90;;;;;;5048759;28;20130;-63
2022/10/03 14:44:00;;;;;;;5.65;2.22;;;9.00;99.90;;;;;;5045312;28;20028;-65
2022/10/03 14:46:33;;;;;;;4.63;1.80;;;9.00;99.90;;;;;;5044531;28;20056;-63
2022/10/03 14:49:05;;;;;;;6.65;2.55;;;8.90;99.90;;;;;;5037205;28;20041;-63
2022/10/03 14:51:42;;;;;;;6.40;2.25;;;8.90;99.90;;;;;;5052378;28;20048;-63
2022/10/03 14:54:28;;;;;;;10.35;2.67;;;8.80;99.90;;;;;;5052294;28;20017;-63